Hovedside
METAR-TAF:

METAR-TAF

Lufthavner :

Bornholms lufthavn

Rønne, Danmark

breddegrad: 55-04N, lengdegrad: 014-45E, høyde over havet: 16 m

Gjeldene værobservasjon

Denne rapporten ble laget for 29 minutter siden, klokken 06:50 UTC
Vind 17 kt fra Øst
Temperatur 13°C
Luftfuktighet 47%
Trykk 1020 hPa
Sikt 10 km eller mer

METAR: EKRN 230650Z AUTO 10017KT 9999 NCD 13/02 Q1020

Tid: 09:19 (07:19 UTC)

Varsel

Denne rapporten ble laget for 1 time og 55 minutter siden, klokken 05:24 UTC
Varsel gyldig fra 23. klokken 06 UTC til 23. klokken 15 UTC
Vind 15 kt fra Øst
Sikt 10 km eller mer
ingen skyer under 1500 m og ingen bygeskyer
Blir
fra 23. klokken 06 UTC til 23. klokken 08 UTC
Vind 22 kt fra Øst-sørøst med vindkast opp mot 35 kt

TAF: EKRN 230524Z 2306/2315 10015KT CAVOK BECMG 2306/2308 11022G35KT

Værobservasjoner og værvarsel for over 4000 flyplasser (METAR- og TAF-rapporter).

Tilgjengelige stasjoner er representert av de røde og gule prikkene på kartet.

Hold musepekeren over prikken for å se navnet på stasjonen.

Klikk så for å se værobservasjoner og -varsler.

For å forandre kartet kan du klikke på den grønne knappen med svart kryss for å zoome inn, på den grønne knappen med strek for å zoome ut, eller på de grønne pilene for å se tilstøtende kart.


METAR-TAF: